Flight Track Log - Related Links

Times and Time Zones

All times are in EDT time to prevent confusion due to time zone crossing. See the PDT4207 flight status page for this flight to view local times or setup timezone preferences in your user account.

Time Position Orientation Groundspeed Altitude Reporting Facility
EDT Latitude Longitude Course Direction KTS MPH feet Rate Location/Type
Fri 09:37:42 PM 39.9000 -75.2333 351° North 128 147 400  Level Philadelphia TRACON
Fri 09:38:55 PM 39.9500 -75.2500 346° North 171 197 2,200 1,465 Climbing Philadelphia TRACON
Fri 09:39:49 PM 39.9833 -75.2667 339° North 160 184 3,500 900 Climbing Philadelphia TRACON
Fri 09:40:00 PM 40.0723 -75.3020 349° North  Level Estimated
Fri 09:40:55 PM 40.0333 -75.2833 346° North 208 239 4,000  Level Philadelphia TRACON
Fri 09:41:00 PM 40.1399 -75.3165 351° North  Level FlightAware Approximate
Fri 09:42:00 PM 40.2074 -75.3310 351° North  Level FlightAware Approximate
Fri 09:42:00 PM 40.1091 -75.2879 339° North  Level FlightAware Approximate
Fri 09:49:00 PM 40.5782 -75.4153 349° North  Level FlightAware Approximate
Fri 09:50:00 PM 40.6455 -75.4321 349° North  Level FlightAware Approximate
Fri 09:51:00 PM 40.7127 -75.4490 349° North  Level FlightAware Approximate
Fri 09:52:00 PM 40.7811 -75.4500 North  Level FlightAware Approximate
Fri 09:53:00 PM 40.8496 -75.4500 North  Level FlightAware Approximate
Fri 09:54:00 PM 40.9181 -75.4500 North  Level FlightAware Approximate
Fri 09:55:00 PM 40.9866 -75.4500 North  Level FlightAware Approximate
Fri 09:56:00 PM 41.0550 -75.4517 357° North  Level FlightAware Approximate
Fri 09:57:00 PM 41.1234 -75.4569 357° North  Level FlightAware Approximate
Fri 09:58:00 PM 41.1918 -75.4622 357° North  Level FlightAware Approximate
Fri 09:59:00 PM 41.2602 -75.4667 North  Level FlightAware Approximate
Fri 10:00:00 PM 41.3287 -75.4667 North  Level FlightAware Approximate
Fri 10:01:00 PM 41.3971 -75.4667 North  Level FlightAware Approximate
Fri 10:02:00 PM 41.4656 -75.4667 North  Level FlightAware Approximate
Fri 10:03:00 PM 41.5207 -75.5205 323° Northwest  Level FlightAware Approximate
Fri 10:04:00 PM 41.5756 -75.5753 323° Northwest  Level FlightAware Approximate
Fri 10:05:00 PM 41.6304 -75.6302 323° Northwest  Level FlightAware Approximate
Fri 10:06:00 PM 41.6852 -75.6851 323° Northwest  Level FlightAware Approximate
Fri 10:07:00 PM 41.7407 -75.7388 326° Northwest  Level FlightAware Approximate
Fri 10:08:00 PM 41.7972 -75.7908 326° Northwest  Level FlightAware Approximate
Fri 10:09:00 PM 41.8536 -75.8429 325° Northwest  Level FlightAware Approximate
Fri 10:10:00 PM 41.9100 -75.8951 325° Northwest  Level FlightAware Approximate
Fri 10:11:00 PM 41.9655 -75.9489 323° Northwest  Level FlightAware Approximate
Fri 10:12:00 PM 42.0205 -76.0038 323° Northwest  Level FlightAware Approximate
Fri 10:13:00 PM 42.0755 -76.0588 323° Northwest  Level FlightAware Approximate
Fri 10:14:00 PM 42.1305 -76.1138 323° Northwest  Level FlightAware Approximate
Fri 10:15:00 PM 42.1656 -76.0844 37° Northeast  Level FlightAware Approximate
Fri 10:16:00 PM 42.1986 -76.0035 62° Northeast  Level FlightAware Approximate
Fri 10:17:00 PM 42.2000 -75.9667 90° East  Level FlightAware Approximate

Login

Don't have an account? Register now (free) for customized features, flight alerts, and more!